createdAt,value
2023-01-20T00:00:45.569Z,95802.22
2023-01-20T00:03:11.992Z,95799.44
2023-01-20T00:05:38.483Z,95801.47
2023-01-20T00:08:05.064Z,95799.41
2023-01-20T00:10:31.656Z,95804.69
2023-01-20T00:12:58.090Z,95813.41
2023-01-20T00:15:24.618Z,95825.03
2023-01-20T00:17:51.029Z,95831.47
2023-01-20T00:20:17.785Z,95833.59
2023-01-20T00:22:44.354Z,95840.00
2023-01-20T00:25:10.979Z,95842.13
2023-01-20T00:27:37.500Z,95840.09
2023-01-20T00:30:04.273Z,95832.56
2023-01-20T00:32:30.954Z,95828.16
2023-01-20T00:34:57.421Z,95824.34
2023-01-20T00:37:23.899Z,95819.75
2023-01-20T00:39:50.400Z,95809.63
2023-01-20T00:42:16.801Z,95810.06
2023-01-20T00:44:43.272Z,95817.28
2023-01-20T00:47:09.869Z,95823.41
2023-01-20T00:49:36.292Z,95831.22
2023-01-20T00:52:02.718Z,95835.22
2023-01-20T00:54:29.142Z,95832.38
2023-01-20T00:56:55.563Z,95829.63
2023-01-20T00:59:22.060Z,95823.25
2023-01-20T01:01:48.580Z,95833.69
2023-01-20T01:04:15.052Z,95834.25
2023-01-20T01:06:41.474Z,95839.84
2023-01-20T01:09:08.065Z,95847.50
2023-01-20T01:11:34.489Z,95842.34
2023-01-20T01:14:01.014Z,95851.34
2023-01-20T01:16:27.809Z,95848.59
2023-01-20T01:18:54.977Z,95855.13
2023-01-20T01:21:21.701Z,95861.50
2023-01-20T01:23:48.149Z,95863.41
2023-01-20T01:26:14.746Z,95845.84
2023-01-20T01:28:41.244Z,95843.50
2023-01-20T01:31:07.819Z,95849.41
2023-01-20T01:33:34.475Z,95857.56
2023-01-20T01:36:01.601Z,95861.50
2023-01-20T01:38:28.423Z,95865.56
2023-01-20T01:40:55.286Z,95871.63
2023-01-20T01:43:25.994Z,95870.94
2023-01-20T01:46:08.270Z,95871.75
2023-01-20T01:48:34.763Z,95861.56
2023-01-20T01:51:13.383Z,95861.50
2023-01-20T01:53:42.113Z,95859.84
2023-01-20T01:56:08.536Z,95863.72
2023-01-20T01:58:35.739Z,95849.09
2023-01-20T02:01:02.330Z,95839.38
2023-01-20T02:03:29.049Z,95830.16
2023-01-20T02:05:55.486Z,95833.59
2023-01-20T02:08:21.916Z,95830.16
2023-01-20T02:10:48.353Z,95830.81
2023-01-20T02:13:14.796Z,95830.50
2023-01-20T02:15:53.457Z,95816.78
2023-01-20T02:18:26.260Z,95821.94
2023-01-20T02:20:52.900Z,95830.00
2023-01-20T02:23:19.549Z,95834.63
2023-01-20T02:26:04.715Z,95835.09
2023-01-20T02:28:37.509Z,95836.38
2023-01-20T02:31:25.437Z,95837.91
2023-01-20T02:33:58.157Z,95836.72
2023-01-20T02:36:29.698Z,95829.66
2023-01-20T02:38:57.062Z,95837.00
2023-01-20T02:41:24.620Z,95842.56
2023-01-20T02:43:53.254Z,95848.97
2023-01-20T02:46:46.061Z,95842.66
2023-01-20T02:49:42.540Z,95838.81
2023-01-20T02:52:10.696Z,95851.91
2023-01-20T02:54:37.659Z,95852.13
2023-01-20T02:57:04.359Z,95863.53
2023-01-20T02:59:31.254Z,95866.88
2023-01-20T03:02:05.186Z,95864.63
2023-01-20T03:04:37.968Z,95879.53
2023-01-20T03:07:04.449Z,95868.84
2023-01-20T03:09:31.442Z,95868.09
2023-01-20T03:11:59.323Z,95864.47
2023-01-20T03:14:25.946Z,95875.13
2023-01-20T03:16:52.468Z,95869.00
2023-01-20T03:19:20.510Z,95873.09
2023-01-20T03:21:47.225Z,95868.69
2023-01-20T03:24:13.694Z,95869.69
2023-01-20T03:26:40.105Z,95868.94
2023-01-20T03:29:07.918Z,95864.16
2023-01-20T03:31:55.012Z,95868.59
2023-01-20T03:34:22.127Z,95866.59
2023-01-20T03:36:48.584Z,95866.63
2023-01-20T03:39:15.016Z,95866.53
2023-01-20T03:41:46.590Z,95869.22
2023-01-20T03:44:21.370Z,95876.16
2023-01-20T03:46:50.891Z,95881.28
2023-01-20T03:49:27.701Z,95881.09
2023-01-20T03:51:54.281Z,95878.88
2023-01-20T03:54:22.836Z,95886.25
2023-01-20T03:57:04.382Z,95893.66
2023-01-20T03:59:32.525Z,95899.94
2023-01-20T04:01:59.260Z,95898.25
2023-01-20T04:04:25.758Z,95889.13
2023-01-20T04:06:52.263Z,95856.63
2023-01-20T04:09:26.257Z,95886.44
2023-01-20T04:11:52.898Z,95887.44
2023-01-20T04:14:19.365Z,95888.31
2023-01-20T04:16:52.426Z,95900.75
2023-01-20T04:19:18.912Z,95897.06
2023-01-20T04:22:04.102Z,95904.44
2023-01-20T04:24:35.538Z,95904.09
2023-01-20T04:27:02.030Z,95903.41
2023-01-20T04:29:28.479Z,95909.34
2023-01-20T04:32:01.327Z,95912.66
2023-01-20T04:34:28.154Z,95907.41
2023-01-20T04:36:54.628Z,95911.59
2023-01-20T04:39:21.080Z,95912.09
2023-01-20T04:41:47.854Z,95911.53
2023-01-20T04:44:14.331Z,95913.16
2023-01-20T04:46:40.932Z,95914.75
2023-01-20T04:49:07.584Z,95913.69
2023-01-20T04:51:34.090Z,95921.75
2023-01-20T04:54:00.571Z,95918.00
2023-01-20T04:56:27.290Z,95916.75
2023-01-20T04:58:53.717Z,95912.28
2023-01-20T05:01:20.306Z,95904.91
2023-01-20T05:03:46.794Z,95913.34
2023-01-20T05:06:13.336Z,95904.91
2023-01-20T05:08:39.818Z,95916.66
2023-01-20T05:11:06.409Z,95908.88
2023-01-20T05:13:33.728Z,95924.84
2023-01-20T05:16:02.828Z,95934.47
2023-01-20T05:18:29.634Z,95938.69
2023-01-20T05:20:56.080Z,95943.84
2023-01-20T05:23:22.580Z,95943.75
2023-01-20T05:25:52.311Z,95941.22
2023-01-20T05:28:18.905Z,95946.94
2023-01-20T05:30:45.592Z,95948.38
2023-01-20T05:33:12.173Z,95954.25
2023-01-20T05:35:38.885Z,95961.56
2023-01-20T05:38:05.465Z,95966.56
2023-01-20T05:40:32.067Z,95977.28
2023-01-20T05:43:01.982Z,95980.47
2023-01-20T05:45:28.831Z,95985.41
2023-01-20T05:47:58.711Z,95982.88
2023-01-20T05:50:25.573Z,95981.34
2023-01-20T05:52:52.137Z,95976.56
2023-01-20T05:55:18.698Z,95974.78
2023-01-20T06:01:07.793Z,95978.91
2023-01-20T06:03:34.474Z,95973.03
2023-01-20T06:06:01.861Z,95985.59
2023-01-20T06:11:56.058Z,95977.75
2023-01-20T06:14:22.735Z,95973.69
2023-01-20T06:16:49.905Z,95972.78
2023-01-20T06:19:16.386Z,95973.16
2023-01-20T06:21:43.401Z,95973.41
2023-01-20T06:24:10.844Z,95982.81
2023-01-20T06:26:37.304Z,95991.88
2023-01-20T06:29:03.814Z,95990.94
2023-01-20T06:31:30.332Z,95990.63
2023-01-20T06:33:56.852Z,95994.53
2023-01-20T06:36:23.302Z,95980.91
2023-01-20T06:38:51.127Z,95988.28
2023-01-20T06:41:17.801Z,95982.22
2023-01-20T06:43:44.259Z,95976.16
2023-01-20T06:46:11.342Z,95984.38
2023-01-20T06:48:37.798Z,95976.47
2023-01-20T06:51:05.064Z,95966.09
2023-01-20T06:53:31.578Z,95972.66
2023-01-20T06:55:58.341Z,95969.13
2023-01-20T06:58:25.309Z,95972.13
2023-01-20T07:00:52.198Z,95973.50
2023-01-20T07:03:18.730Z,95973.22
2023-01-20T07:05:50.870Z,95989.47
2023-01-20T07:08:17.363Z,95983.06
2023-01-20T07:11:10.676Z,95994.41
2023-01-20T07:13:37.129Z,95997.28
2023-01-20T07:16:03.652Z,95987.72
2023-01-20T07:18:30.145Z,95986.19
2023-01-20T07:20:56.711Z,95980.09
2023-01-20T07:23:23.457Z,95977.06
2023-01-20T07:26:06.276Z,95975.56
2023-01-20T07:28:32.843Z,95975.75
2023-01-20T07:31:31.909Z,95979.22
2023-01-20T07:33:59.713Z,95983.84
2023-01-20T07:36:26.275Z,95983.25
2023-01-20T07:38:53.008Z,95984.47
2023-01-20T07:41:20.133Z,95990.81
2023-01-20T07:43:48.835Z,95987.97
2023-01-20T07:46:15.505Z,95975.72
2023-01-20T07:48:42.047Z,95977.81
2023-01-20T07:51:09.016Z,95977.16
2023-01-20T07:53:36.424Z,95980.63
2023-01-20T07:56:04.985Z,95984.78
2023-01-20T07:58:31.472Z,95993.22
2023-01-20T08:00:58.046Z,95992.97
2023-01-20T08:03:27.372Z,95995.97
2023-01-20T08:05:54.028Z,95987.41
2023-01-20T08:08:20.531Z,95995.91
2023-01-20T08:10:47.744Z,96002.38
2023-01-20T08:13:14.288Z,96007.56
2023-01-20T08:15:40.759Z,96018.03
2023-01-20T08:18:07.281Z,96018.50
2023-01-20T08:20:33.720Z,96033.13
2023-01-20T08:23:00.329Z,96028.41
2023-01-20T08:25:26.802Z,96032.84
2023-01-20T08:27:53.425Z,96033.16
2023-01-20T08:30:20.019Z,96037.41
2023-01-20T08:32:46.465Z,96044.22
2023-01-20T08:35:13.250Z,96045.00
2023-01-20T08:37:39.799Z,96042.53
2023-01-20T08:40:08.444Z,96050.88
2023-01-20T08:42:35.119Z,96046.38
2023-01-20T08:45:01.590Z,96058.03
2023-01-20T08:47:28.094Z,96053.19
2023-01-20T08:49:54.608Z,96054.97
2023-01-20T08:52:21.173Z,96059.47
2023-01-20T08:54:47.655Z,96053.44
2023-01-20T08:57:15.952Z,96057.97
2023-01-20T08:59:42.606Z,96055.22
2023-01-20T09:02:09.855Z,96055.22
2023-01-20T09:04:39.443Z,96054.03
2023-01-20T09:07:05.904Z,96064.22
2023-01-20T09:09:32.322Z,96056.56
2023-01-20T09:11:58.781Z,96061.75
2023-01-20T09:14:25.370Z,96072.22
2023-01-20T09:16:51.866Z,96071.22
2023-01-20T09:19:30.040Z,96069.63
2023-01-20T09:21:56.662Z,96066.44
2023-01-20T09:24:23.346Z,96060.94
2023-01-20T09:26:50.002Z,96073.66
2023-01-20T09:29:17.352Z,96072.56
2023-01-20T09:31:45.048Z,96060.81
2023-01-20T09:34:14.988Z,96049.00
2023-01-20T09:36:41.730Z,96049.09
2023-01-20T09:39:27.322Z,96062.78
2023-01-20T09:42:23.334Z,96058.34
2023-01-20T09:44:56.781Z,96075.66
2023-01-20T09:47:31.397Z,96063.75
2023-01-20T09:50:25.885Z,96051.84
2023-01-20T09:53:05.909Z,96054.44
2023-01-20T09:55:32.370Z,96051.56
2023-01-20T09:58:01.091Z,96063.59
2023-01-20T10:00:28.006Z,96060.06
2023-01-20T10:02:57.108Z,96063.31
2023-01-20T10:05:24.335Z,96058.63
2023-01-20T10:07:51.259Z,96048.84
2023-01-20T10:10:21.057Z,96050.78
2023-01-20T10:12:52.168Z,96056.25
2023-01-20T10:15:18.618Z,96044.84
2023-01-20T10:18:00.326Z,96042.63
2023-01-20T10:20:28.082Z,96038.03
2023-01-20T10:22:54.626Z,96041.59
2023-01-20T10:25:40.063Z,96032.13
2023-01-20T10:28:14.683Z,96029.19
2023-01-20T10:30:41.588Z,96036.41
2023-01-20T10:33:12.247Z,96025.31
2023-01-20T10:35:39.642Z,96023.03
2023-01-20T10:38:07.042Z,96022.13
2023-01-20T10:40:36.602Z,96021.72
2023-01-20T10:43:21.459Z,96023.88
2023-01-20T10:45:54.940Z,96033.03
2023-01-20T10:48:24.681Z,96031.28
2023-01-20T10:50:53.823Z,96040.78
2023-01-20T10:53:21.608Z,96039.44
2023-01-20T10:55:55.088Z,96031.22
2023-01-20T10:58:24.440Z,96030.06
2023-01-20T11:00:51.122Z,96034.97
2023-01-20T11:03:20.991Z,96036.19
2023-01-20T11:05:48.026Z,96035.16
2023-01-20T11:08:15.972Z,96034.25
2023-01-20T11:10:42.452Z,96037.50
2023-01-20T11:13:09.447Z,96039.03
2023-01-20T11:15:36.943Z,96037.31
2023-01-20T11:18:15.376Z,96031.91
2023-01-20T11:20:44.790Z,96022.53
2023-01-20T11:23:24.546Z,96030.59
2023-01-20T11:25:57.675Z,96022.03
2023-01-20T11:28:24.207Z,96017.22
2023-01-20T11:30:54.872Z,96017.09
2023-01-20T11:33:22.572Z,96000.81
2023-01-20T11:36:02.550Z,96005.00
2023-01-20T11:38:30.212Z,95998.88
2023-01-20T11:40:57.444Z,95998.47
2023-01-20T11:43:35.172Z,95990.00
2023-01-20T11:46:11.637Z,95980.00
2023-01-20T11:48:38.219Z,95974.53
2023-01-20T11:51:04.957Z,95969.09
2023-01-20T11:53:31.910Z,95977.06
2023-01-20T11:55:59.306Z,95982.06
2023-01-20T11:58:32.591Z,95984.91
2023-01-20T12:01:00.163Z,95986.06
2023-01-20T12:03:32.686Z,95982.34
2023-01-20T12:06:18.230Z,95991.34
2023-01-20T12:08:55.778Z,95996.63
2023-01-20T12:11:43.260Z,96000.31
2023-01-20T12:14:28.734Z,96014.88
2023-01-20T12:17:15.912Z,96006.28
2023-01-20T12:19:45.106Z,96017.75
2023-01-20T12:22:13.723Z,96027.88
2023-01-20T12:25:05.480Z,96036.94
2023-01-20T12:27:31.914Z,96032.09
2023-01-20T12:30:05.973Z,96050.16
2023-01-20T12:32:33.348Z,96054.72
2023-01-20T12:35:00.111Z,96050.53
2023-01-20T12:37:50.974Z,96044.75
2023-01-20T12:40:35.965Z,96046.56
2023-01-20T12:43:27.024Z,96048.38
2023-01-20T12:46:00.098Z,96043.13
2023-01-20T12:48:34.456Z,96042.38
2023-01-20T12:51:05.763Z,96043.81
2023-01-20T12:53:51.318Z,96035.59
2023-01-20T12:56:56.249Z,96030.84
2023-01-20T12:59:30.177Z,96031.88
2023-01-20T13:02:00.517Z,96040.13
2023-01-20T13:04:30.071Z,96034.03
2023-01-20T13:07:11.383Z,96035.31
2023-01-20T13:09:37.990Z,96036.13
2023-01-20T13:12:17.118Z,96029.31
2023-01-20T13:14:45.296Z,96030.72
2023-01-20T13:17:18.576Z,96035.06
2023-01-20T13:19:49.585Z,96038.63
2023-01-20T13:22:17.180Z,96049.19
2023-01-20T13:24:44.465Z,96053.34
2023-01-20T13:27:12.144Z,96057.19
2023-01-20T13:29:41.989Z,96066.44
2023-01-20T13:32:28.185Z,96064.06
2023-01-20T13:34:54.906Z,96071.53
2023-01-20T13:37:21.371Z,96075.44
2023-01-20T13:39:48.495Z,96064.88
2023-01-20T13:42:33.819Z,96068.72
2023-01-20T13:45:15.600Z,96071.88
2023-01-20T13:47:45.434Z,96074.06
2023-01-20T13:50:35.243Z,96081.06
2023-01-20T13:53:10.744Z,96072.06
2023-01-20T13:55:44.067Z,96079.78
2023-01-20T13:58:13.557Z,96069.25
2023-01-20T14:00:39.979Z,96076.41
2023-01-20T14:03:25.308Z,96076.69
2023-01-20T14:06:01.460Z,96068.41
2023-01-20T14:08:32.251Z,96075.00
2023-01-20T14:11:08.291Z,96069.88
2023-01-20T14:13:34.908Z,96076.59
2023-01-20T14:16:01.503Z,96072.78
2023-01-20T14:18:28.084Z,96071.25
2023-01-20T14:21:13.279Z,96068.78
2023-01-20T14:23:43.174Z,96062.06
2023-01-20T14:26:10.986Z,96061.03
2023-01-20T14:28:41.507Z,96065.97
2023-01-20T14:31:17.351Z,96068.25
2023-01-20T14:33:50.302Z,96073.22
2023-01-20T14:36:20.867Z,96072.78
2023-01-20T14:38:58.254Z,96075.97
2023-01-20T14:41:32.287Z,96085.50
2023-01-20T14:43:58.793Z,96090.78
2023-01-20T14:46:25.415Z,96081.88
2023-01-20T14:48:52.166Z,96088.75
2023-01-20T14:51:18.665Z,96089.50
2023-01-20T14:53:45.574Z,96094.25
2023-01-20T14:56:19.370Z,96094.88
2023-01-20T14:58:46.935Z,96098.25
2023-01-20T15:01:23.193Z,96101.25
2023-01-20T15:03:59.530Z,96096.59
2023-01-20T15:06:26.188Z,96102.75
2023-01-20T15:09:05.607Z,96103.22
2023-01-20T15:11:32.899Z,96084.88
2023-01-20T15:14:02.087Z,96100.31
2023-01-20T15:16:29.351Z,96105.13
2023-01-20T15:19:17.697Z,96095.78
2023-01-20T15:21:53.703Z,96111.41
2023-01-20T15:24:23.205Z,96107.94
2023-01-20T15:26:50.730Z,96108.75
2023-01-20T15:29:29.347Z,96114.13
2023-01-20T15:31:56.562Z,96097.31
2023-01-20T15:34:23.436Z,96114.56
2023-01-20T15:36:50.468Z,96115.84
2023-01-20T15:39:17.750Z,96115.41
2023-01-20T15:41:44.284Z,96123.13
2023-01-20T15:44:10.856Z,96115.22
2023-01-20T15:46:38.654Z,96135.03
2023-01-20T15:49:06.899Z,96128.03
2023-01-20T15:51:33.559Z,96130.41
2023-01-20T15:54:00.053Z,96124.75
2023-01-20T15:56:27.089Z,96129.66
2023-01-20T15:58:53.629Z,96125.56
2023-01-20T16:01:20.947Z,96121.03
2023-01-20T16:03:47.550Z,96125.56
2023-01-20T16:06:18.219Z,96128.84
2023-01-20T16:08:48.282Z,96126.94
2023-01-20T16:11:14.913Z,96139.91
2023-01-20T16:13:41.564Z,96133.03
2023-01-20T16:16:15.034Z,96129.47
2023-01-20T16:18:41.617Z,96133.19
2023-01-20T16:21:10.149Z,96149.53
2023-01-20T16:23:36.664Z,96145.19
2023-01-20T16:26:05.690Z,96134.56
2023-01-20T16:28:32.302Z,96148.47
2023-01-20T16:31:00.177Z,96134.81
2023-01-20T16:33:27.131Z,96140.00
2023-01-20T16:35:54.189Z,96156.34
2023-01-20T16:38:21.975Z,96171.78
2023-01-20T16:40:52.162Z,96163.34
2023-01-20T16:43:19.511Z,96167.72
2023-01-20T16:45:54.774Z,96167.06
2023-01-20T16:48:24.813Z,96164.38
2023-01-20T16:50:51.608Z,96168.00
2023-01-20T16:53:18.567Z,96165.56
2023-01-20T16:55:48.193Z,96172.44
2023-01-20T16:58:14.967Z,96170.81
2023-01-20T17:00:41.639Z,96168.47
2023-01-20T17:03:08.160Z,96175.56
2023-01-20T17:05:34.628Z,96167.34
2023-01-20T17:08:01.045Z,96163.81
2023-01-20T17:10:29.500Z,96169.91
2023-01-20T17:12:56.183Z,96178.16
2023-01-20T17:15:22.731Z,96157.53
2023-01-20T17:17:54.635Z,96162.28
2023-01-20T17:20:21.312Z,96162.81
2023-01-20T17:22:47.778Z,96169.91
2023-01-20T17:25:16.228Z,96163.00
2023-01-20T17:27:44.987Z,96166.81
2023-01-20T17:30:11.687Z,96174.72
2023-01-20T17:32:38.343Z,96163.16
2023-01-20T17:37:47.680Z,96167.44
2023-01-20T17:40:14.819Z,96165.97
2023-01-20T17:42:43.531Z,96173.16
2023-01-20T17:45:10.416Z,96184.69
2023-01-20T17:47:36.873Z,96178.53
2023-01-20T17:50:03.565Z,96177.88
2023-01-20T17:52:30.067Z,96173.16
2023-01-20T17:54:56.692Z,96174.72
2023-01-20T17:57:23.099Z,96170.78
2023-01-20T17:59:49.671Z,96181.31
2023-01-20T18:02:18.598Z,96171.97
2023-01-20T18:04:45.179Z,96166.91
2023-01-20T18:07:11.628Z,96158.81
2023-01-20T18:09:38.092Z,96156.75
2023-01-20T18:12:04.644Z,96153.28
2023-01-20T18:14:31.204Z,96154.19
2023-01-20T18:16:57.927Z,96169.47
2023-01-20T18:19:31.685Z,96161.72
2023-01-20T18:21:59.811Z,96181.72
2023-01-20T18:24:26.535Z,96185.44
2023-01-20T18:26:52.966Z,96190.00
2023-01-20T18:29:19.657Z,96169.28
2023-01-20T18:31:46.899Z,96166.56
2023-01-20T18:34:15.849Z,96169.25
2023-01-20T18:36:44.912Z,96170.44
2023-01-20T18:39:17.541Z,96162.91
2023-01-20T18:41:43.979Z,96160.19
2023-01-20T18:44:10.455Z,96162.25
2023-01-20T18:46:36.941Z,96164.53
2023-01-20T18:49:03.695Z,96164.72
2023-01-20T18:51:30.172Z,96152.38
2023-01-20T18:54:01.103Z,96148.44
2023-01-20T18:56:27.884Z,96142.91
2023-01-20T18:58:54.521Z,96138.44
2023-01-20T19:01:22.208Z,96135.19
2023-01-20T19:03:49.992Z,96141.47
2023-01-20T19:06:17.452Z,96137.94
2023-01-20T19:08:44.678Z,96130.47
2023-01-20T19:11:15.294Z,96128.84
2023-01-20T19:13:42.090Z,96135.09
2023-01-20T19:16:10.544Z,96138.91
2023-01-20T19:18:37.330Z,96120.91
2023-01-20T19:21:04.704Z,96129.28
2023-01-20T19:23:31.290Z,96129.19
2023-01-20T19:26:01.557Z,96119.94
2023-01-20T19:28:28.174Z,96141.72
2023-01-20T19:30:54.773Z,96132.19
2023-01-20T19:33:21.266Z,96112.94
2023-01-20T19:35:47.779Z,96123.56
2023-01-20T19:38:14.433Z,96121.19
2023-01-20T19:40:40.956Z,96118.47
2023-01-20T19:43:07.390Z,96113.13
2023-01-20T19:45:45.417Z,96121.13
2023-01-20T19:48:12.482Z,96118.19
2023-01-20T19:50:39.025Z,96118.19
2023-01-20T19:53:05.485Z,96120.56
2023-01-20T19:55:31.900Z,96112.41
2023-01-20T19:57:58.415Z,96101.03
2023-01-20T20:00:24.864Z,96113.66
2023-01-20T20:02:53.337Z,96109.84
2023-01-20T20:05:19.866Z,96111.22
2023-01-20T20:07:46.544Z,96105.69
2023-01-20T20:10:12.987Z,96096.69
2023-01-20T20:12:39.634Z,96102.94
2023-01-20T20:15:06.486Z,96094.59
2023-01-20T20:17:33.363Z,96103.59
2023-01-20T20:19:59.820Z,96115.84
2023-01-20T20:22:26.341Z,96106.56
2023-01-20T20:24:52.837Z,96105.41
2023-01-20T20:27:19.370Z,96108.06
2023-01-20T20:29:45.812Z,96100.75
2023-01-20T20:32:12.332Z,96105.22
2023-01-20T20:34:51.010Z,96101.41
2023-01-20T20:37:17.465Z,96103.47
2023-01-20T20:39:43.928Z,96099.47
2023-01-20T20:42:10.436Z,96098.50
2023-01-20T20:44:36.938Z,96101.84
2023-01-20T20:47:03.901Z,96095.88
2023-01-20T20:49:32.007Z,96104.03
2023-01-20T20:51:58.451Z,96092.22
2023-01-20T20:54:25.044Z,96094.59
2023-01-20T20:56:51.833Z,96087.13
2023-01-20T20:59:23.025Z,96090.22
2023-01-20T21:01:49.811Z,96084.22
2023-01-20T21:04:16.540Z,96092.59
2023-01-20T21:06:43.078Z,96089.69
2023-01-20T21:09:09.826Z,96096.66
2023-01-20T21:11:38.289Z,96092.38
2023-01-20T21:14:04.973Z,96082.31
2023-01-20T21:16:31.516Z,96094.31
2023-01-20T21:18:58.351Z,96106.66
2023-01-20T21:21:25.117Z,96091.22
2023-01-20T21:23:52.283Z,96085.88
2023-01-20T21:26:19.067Z,96091.69
2023-01-20T21:28:45.621Z,96096.03
2023-01-20T21:31:13.791Z,96099.84
2023-01-20T21:33:40.860Z,96096.38
2023-01-20T21:36:09.243Z,96100.03
2023-01-20T21:38:36.168Z,96114.19
2023-01-20T21:41:06.993Z,96105.47
2023-01-20T21:43:52.090Z,96105.47
2023-01-20T21:46:18.851Z,96096.38
2023-01-20T21:49:04.159Z,96112.03
2023-01-20T21:51:49.374Z,96096.31
2023-01-20T21:54:15.971Z,96090.59
2023-01-20T21:56:42.499Z,96096.41
2023-01-20T21:59:09.067Z,96087.88
2023-01-20T22:01:35.665Z,96106.69
2023-01-20T22:04:02.189Z,96107.50
2023-01-20T22:06:28.837Z,96084.78
2023-01-20T22:08:55.318Z,96096.13
2023-01-20T22:11:21.878Z,96105.69
2023-01-20T22:13:48.325Z,96121.13
2023-01-20T22:16:14.848Z,96110.13
2023-01-20T22:18:45.009Z,96113.22
2023-01-20T22:21:11.506Z,96109.13
2023-01-20T22:23:38.055Z,96125.38
2023-01-20T22:26:05.533Z,96114.56
2023-01-20T22:28:38.454Z,96108.28
2023-01-20T22:31:08.446Z,96110.41
2023-01-20T22:33:34.971Z,96110.22
2023-01-20T22:36:01.575Z,96106.31
2023-01-20T22:38:28.044Z,96110.66
2023-01-20T22:40:54.475Z,96112.59
2023-01-20T22:43:20.914Z,96116.75
2023-01-20T22:45:48.484Z,96116.13
2023-01-20T22:48:15.208Z,96120.31
2023-01-20T22:50:41.932Z,96116.50
2023-01-20T22:53:13.273Z,96119.84
2023-01-20T22:55:49.026Z,96122.00
2023-01-20T22:58:26.159Z,96110.69
2023-01-20T23:00:52.623Z,96108.50
2023-01-20T23:03:19.676Z,96102.94
2023-01-20T23:05:52.844Z,96101.06
2023-01-20T23:08:19.504Z,96102.03
2023-01-20T23:10:49.152Z,96094.97
2023-01-20T23:13:16.101Z,96090.69
2023-01-20T23:15:42.660Z,96094.72
2023-01-20T23:18:09.871Z,96105.84
2023-01-20T23:20:36.447Z,96093.34
2023-01-20T23:23:02.929Z,96106.78
2023-01-20T23:25:29.784Z,96102.69
2023-01-20T23:27:56.260Z,96098.50
2023-01-20T23:30:22.905Z,96107.97
2023-01-20T23:32:49.335Z,96102.88
2023-01-20T23:35:15.816Z,96092.88
2023-01-20T23:37:42.329Z,96105.31
2023-01-20T23:40:09.198Z,96114.31
2023-01-20T23:42:37.015Z,96108.41
2023-01-20T23:45:03.548Z,96121.75
2023-01-20T23:47:30.029Z,96101.22
2023-01-20T23:49:56.529Z,96112.41
2023-01-20T23:52:24.920Z,96115.06
2023-01-20T23:54:52.276Z,96118.78
2023-01-20T23:57:18.885Z,96122.69
2023-01-20T23:59:45.571Z,96121.75
